createdAt,value
2018-12-10T00:01:10.180Z,97.00
2018-12-10T00:06:12.659Z,97.50
2018-12-10T00:11:15.209Z,97.50
2018-12-10T00:16:17.714Z,97.50
2018-12-10T00:21:20.547Z,97.50
2018-12-10T00:26:23.141Z,97.50
2018-12-10T00:31:25.598Z,97.50
2018-12-10T00:36:28.339Z,97.50
2018-12-10T00:41:30.818Z,97.50
2018-12-10T00:46:33.281Z,97.50
2018-12-10T00:51:35.805Z,97.50
2018-12-10T00:56:38.301Z,97.50
2018-12-10T01:01:41.318Z,97.50
2018-12-10T01:06:44.511Z,97.50
2018-12-10T01:11:47.333Z,97.50
2018-12-10T01:16:49.851Z,97.50
2018-12-10T01:21:52.446Z,97.50
2018-12-10T01:26:55.412Z,97.50
2018-12-10T01:31:57.911Z,97.50
2018-12-10T01:37:00.397Z,97.50
2018-12-10T01:42:02.897Z,97.50
2018-12-10T01:47:05.377Z,97.50
2018-12-10T01:52:07.879Z,97.50
2018-12-10T01:57:10.375Z,97.50
2018-12-10T02:02:12.841Z,97.50
2018-12-10T02:07:15.307Z,97.50
2018-12-10T02:12:17.858Z,97.50
2018-12-10T02:17:21.165Z,97.50
2018-12-10T02:22:23.725Z,97.50
2018-12-10T02:27:26.262Z,97.50
2018-12-10T02:32:29.111Z,97.50
2018-12-10T02:37:31.753Z,97.50
2018-12-10T02:42:34.332Z,97.50
2018-12-10T02:47:36.953Z,97.50
2018-12-10T02:52:39.425Z,97.50
2018-12-10T02:57:42.599Z,97.50
2018-12-10T03:02:45.141Z,97.50
2018-12-10T03:07:47.644Z,97.50
2018-12-10T03:12:50.361Z,97.50
2018-12-10T03:17:52.924Z,97.50
2018-12-10T03:22:55.421Z,97.50
2018-12-10T03:27:57.908Z,97.50
2018-12-10T03:33:00.725Z,97.50
2018-12-10T03:38:03.514Z,97.50
2018-12-10T03:43:05.970Z,97.50
2018-12-10T03:48:08.505Z,97.50
2018-12-10T03:53:10.972Z,97.50
2018-12-10T03:58:13.589Z,97.50
2018-12-10T04:03:16.281Z,97.50
2018-12-10T04:08:18.770Z,97.50
2018-12-10T04:13:21.273Z,97.50
2018-12-10T04:18:25.663Z,97.50
2018-12-10T04:23:28.362Z,97.50
2018-12-10T04:28:30.969Z,97.50
2018-12-10T04:33:33.498Z,97.50
2018-12-10T04:38:35.985Z,97.50
2018-12-10T04:43:38.431Z,97.50
2018-12-10T04:48:40.886Z,97.50
2018-12-10T04:53:43.365Z,97.50
2018-12-10T04:58:46.068Z,97.50
2018-12-10T05:03:48.761Z,97.50
2018-12-10T05:08:51.353Z,97.50
2018-12-10T05:13:53.863Z,97.50
2018-12-10T05:18:56.340Z,97.50
2018-12-10T05:23:58.832Z,97.50
2018-12-10T05:29:01.329Z,97.50
2018-12-10T05:34:03.937Z,97.50
2018-12-10T05:39:06.521Z,97.50
2018-12-10T05:44:09.733Z,97.50
2018-12-10T05:49:12.221Z,97.10
2018-12-10T05:54:14.793Z,97.50
2018-12-10T05:59:17.310Z,97.50
2018-12-10T06:04:20.227Z,97.50
2018-12-10T06:09:23.017Z,97.50
2018-12-10T06:14:25.709Z,97.50
2018-12-10T06:19:28.169Z,97.50
2018-12-10T06:24:30.698Z,97.50
2018-12-10T06:29:33.197Z,97.50
2018-12-10T06:34:35.686Z,97.50
2018-12-10T06:39:38.177Z,97.50
2018-12-10T06:44:40.719Z,96.70
2018-12-10T06:49:43.381Z,97.40
2018-12-10T06:54:45.873Z,97.50
2018-12-10T06:59:48.829Z,97.50
2018-12-10T07:04:51.358Z,97.50
2018-12-10T07:09:53.839Z,97.50
2018-12-10T07:14:56.349Z,97.50
2018-12-10T07:19:58.913Z,97.50
2018-12-10T07:25:01.856Z,97.50
2018-12-10T07:30:06.427Z,97.50
2018-12-10T07:35:08.983Z,97.50
2018-12-10T07:40:11.577Z,97.50
2018-12-10T07:45:14.181Z,97.50
2018-12-10T07:50:17.190Z,97.50
2018-12-10T07:55:19.784Z,97.50
2018-12-10T08:00:22.573Z,97.50
2018-12-10T08:05:25.473Z,97.50
2018-12-10T08:10:28.046Z,97.50
2018-12-10T08:15:30.550Z,97.50
2018-12-10T08:20:33.053Z,97.50
2018-12-10T08:25:35.653Z,97.50
2018-12-10T08:30:38.357Z,97.50
2018-12-10T08:35:41.175Z,97.50
2018-12-10T08:40:43.841Z,97.50
2018-12-10T08:45:46.322Z,97.50
2018-12-10T08:50:48.839Z,97.50
2018-12-10T08:55:51.326Z,95.60
2018-12-10T09:00:53.821Z,88.60
2018-12-10T09:05:57.021Z,85.00
2018-12-10T09:10:59.525Z,86.00
2018-12-10T09:16:02.109Z,81.60
2018-12-10T09:21:04.672Z,80.60
2018-12-10T09:26:07.214Z,85.10
2018-12-10T09:31:09.696Z,87.30
2018-12-10T09:36:12.193Z,90.20
2018-12-10T09:41:14.930Z,91.40
2018-12-10T09:46:17.486Z,90.90
2018-12-10T09:51:20.142Z,91.90
2018-12-10T09:56:22.685Z,93.90
2018-12-10T10:01:26.164Z,92.60
2018-12-10T10:06:28.797Z,93.50
2018-12-10T10:11:31.582Z,93.80
2018-12-10T10:16:34.069Z,94.70
2018-12-10T10:21:36.538Z,91.20
2018-12-10T10:26:39.081Z,90.70
2018-12-10T10:31:41.770Z,92.00
2018-12-10T10:36:44.927Z,92.60
2018-12-10T10:41:47.565Z,89.10
2018-12-10T10:46:50.030Z,92.60
2018-12-10T10:51:52.563Z,93.90
2018-12-10T10:56:55.114Z,95.30
2018-12-10T11:01:59.485Z,94.70
2018-12-10T11:07:01.944Z,92.10
2018-12-10T11:12:04.481Z,93.20
2018-12-10T11:17:07.073Z,93.10
2018-12-10T11:22:09.669Z,91.70
2018-12-10T11:27:12.261Z,90.90
2018-12-10T11:32:14.865Z,91.50
2018-12-10T11:37:17.457Z,91.80
2018-12-10T11:42:20.043Z,92.50
2018-12-10T11:47:22.528Z,92.00
2018-12-10T11:52:26.472Z,92.00
2018-12-10T11:57:28.965Z,90.70
2018-12-10T12:02:31.480Z,90.20
2018-12-10T12:07:34.061Z,89.70
2018-12-10T12:12:36.649Z,86.90
2018-12-10T12:17:39.961Z,85.50
2018-12-10T12:22:43.435Z,84.10
2018-12-10T12:27:45.993Z,83.50
2018-12-10T12:32:48.461Z,84.80
2018-12-10T12:37:50.953Z,84.50
2018-12-10T12:42:53.862Z,85.60
2018-12-10T12:47:56.330Z,85.10
2018-12-10T12:52:59.265Z,84.10
2018-12-10T12:58:02.366Z,84.60
2018-12-10T13:03:04.820Z,84.50
2018-12-10T13:08:07.585Z,81.80
2018-12-10T13:13:10.208Z,83.70
2018-12-10T13:18:12.750Z,84.20
2018-12-10T13:23:16.173Z,82.30
2018-12-10T13:28:18.752Z,83.00
2018-12-10T13:33:21.359Z,81.20
2018-12-10T13:38:23.855Z,81.80
2018-12-10T13:43:26.424Z,82.00
2018-12-10T13:48:29.031Z,81.50
2018-12-10T13:53:31.584Z,82.10
2018-12-10T13:58:34.116Z,83.20
2018-12-10T14:03:36.581Z,83.70
2018-12-10T14:08:39.105Z,82.60
2018-12-10T14:13:41.609Z,84.20
2018-12-10T14:18:44.102Z,86.10
2018-12-10T14:23:46.577Z,87.10
2018-12-10T14:28:49.180Z,87.80
2018-12-10T14:33:51.769Z,87.60
2018-12-10T14:38:54.264Z,87.30
2018-12-10T14:43:56.848Z,87.30
2018-12-10T14:48:59.875Z,88.40
2018-12-10T14:54:02.467Z,89.50
2018-12-10T14:59:05.121Z,89.70
2018-12-10T15:04:07.654Z,90.10
2018-12-10T15:09:10.926Z,90.50
2018-12-10T15:14:15.002Z,91.50
2018-12-10T15:19:17.456Z,91.20
2018-12-10T15:24:19.944Z,89.80
2018-12-10T15:29:22.433Z,90.20
2018-12-10T15:34:25.853Z,89.50
2018-12-10T15:39:28.550Z,91.30
2018-12-10T15:44:31.084Z,91.90
2018-12-10T15:49:33.781Z,93.20
2018-12-10T15:54:36.241Z,94.20
2018-12-10T15:59:38.826Z,95.50
2018-12-10T16:04:41.365Z,95.70
2018-12-10T16:09:44.170Z,95.80
2018-12-10T16:14:46.659Z,95.00
2018-12-10T16:19:49.153Z,94.20
2018-12-10T16:24:52.421Z,92.80
2018-12-10T16:29:55.069Z,93.50
2018-12-10T16:34:57.552Z,92.10
2018-12-10T16:40:00.035Z,91.90
2018-12-10T16:45:02.556Z,93.40
2018-12-10T16:50:06.946Z,95.20
2018-12-10T16:55:09.433Z,95.80
2018-12-10T17:00:11.964Z,97.30
2018-12-10T17:05:14.501Z,97.50
2018-12-10T17:10:16.997Z,97.50
2018-12-10T17:15:19.494Z,97.50
2018-12-10T17:20:21.992Z,97.50
2018-12-10T17:25:24.605Z,97.50
2018-12-10T17:30:27.090Z,97.50
2018-12-10T17:35:29.554Z,97.50
2018-12-10T17:40:32.481Z,97.50
2018-12-10T17:45:35.521Z,97.50
2018-12-10T17:50:38.089Z,97.50
2018-12-10T17:55:40.544Z,97.50
2018-12-10T18:00:43.053Z,97.50
2018-12-10T18:05:45.505Z,97.50
2018-12-10T18:10:48.104Z,97.50
2018-12-10T18:15:50.593Z,97.50
2018-12-10T18:20:53.085Z,97.50
2018-12-10T18:25:55.677Z,97.50
2018-12-10T18:30:58.286Z,97.50
2018-12-10T18:36:01.080Z,97.50
2018-12-10T18:41:03.776Z,97.50
2018-12-10T18:46:06.266Z,97.50
2018-12-10T18:51:08.861Z,97.50
2018-12-10T18:56:11.340Z,97.50
2018-12-10T19:01:13.846Z,97.50
2018-12-10T19:06:16.342Z,97.50
2018-12-10T19:11:19.021Z,97.50
2018-12-10T19:16:21.539Z,97.50
2018-12-10T19:21:24.024Z,97.50
2018-12-10T19:26:26.483Z,97.50
2018-12-10T19:31:29.000Z,97.50
2018-12-10T19:36:31.810Z,97.50
2018-12-10T19:41:34.361Z,97.50
2018-12-10T19:46:36.890Z,97.50
2018-12-10T19:51:39.484Z,97.50
2018-12-10T19:56:41.929Z,97.50
2018-12-10T20:01:44.490Z,97.50
2018-12-10T20:06:52.701Z,97.50
2018-12-10T20:11:56.022Z,97.50
2018-12-10T20:16:58.510Z,97.50
2018-12-10T20:22:01.011Z,97.50
2018-12-10T20:27:03.726Z,97.50
2018-12-10T20:32:06.398Z,97.50
2018-12-10T20:37:09.297Z,97.50
2018-12-10T20:42:12.001Z,97.50
2018-12-10T20:47:14.554Z,97.50
2018-12-10T20:52:17.001Z,97.50
2018-12-10T20:57:19.781Z,97.50
2018-12-10T21:02:22.381Z,97.50
2018-12-10T21:07:24.887Z,97.50
2018-12-10T21:12:27.362Z,97.50
2018-12-10T21:17:29.973Z,97.50
2018-12-10T21:22:32.557Z,97.50
2018-12-10T21:27:35.052Z,97.50
2018-12-10T21:32:37.541Z,97.50
2018-12-10T21:37:40.033Z,97.50
2018-12-10T21:42:42.545Z,97.50
2018-12-10T21:47:45.433Z,97.50
2018-12-10T21:52:48.445Z,97.50
2018-12-10T21:57:50.947Z,97.50
2018-12-10T22:02:53.435Z,97.50
2018-12-10T22:07:56.433Z,97.50
2018-12-10T22:12:58.990Z,97.50
2018-12-10T22:18:01.435Z,97.50
2018-12-10T22:23:03.909Z,97.50
2018-12-10T22:28:06.409Z,97.50
2018-12-10T22:33:08.959Z,97.50
2018-12-10T22:38:11.408Z,97.50
2018-12-10T22:43:13.873Z,97.50
2018-12-10T22:48:16.357Z,97.50
2018-12-10T22:53:18.825Z,97.50
2018-12-10T22:58:21.269Z,97.50
2018-12-10T23:03:23.714Z,97.50
2018-12-10T23:08:26.164Z,97.50
2018-12-10T23:13:28.628Z,97.50
2018-12-10T23:18:48.338Z,97.50
2018-12-10T23:23:50.806Z,97.50
2018-12-10T23:28:53.335Z,97.50
2018-12-10T23:33:55.817Z,97.50
2018-12-10T23:38:58.288Z,97.50
2018-12-10T23:44:00.801Z,97.50
2018-12-10T23:49:03.269Z,97.50
2018-12-10T23:54:05.736Z,97.50
2018-12-10T23:59:08.569Z,97.50
